sensor_id;sensor_type;location;lat;lon;timestamp;P1;durP1;ratioP1;P2;durP2;ratioP2
18399;SDS011;9326;49.468;11.008;2022-08-19T05:00:34;31.27;;;27.87;;
18399;SDS011;9326;49.468;11.008;2022-08-19T05:03:01;30.13;;;26.93;;
18399;SDS011;9326;49.468;11.008;2022-08-19T05:05:28;31.00;;;27.73;;
18399;SDS011;9326;49.468;11.008;2022-08-19T05:07:56;34.30;;;27.63;;
18399;SDS011;9326;49.468;11.008;2022-08-19T05:10:23;30.90;;;27.50;;
18399;SDS011;9326;49.468;11.008;2022-08-19T05:12:50;30.73;;;27.43;;
18399;SDS011;9326;49.468;11.008;2022-08-19T05:15:17;31.20;;;27.83;;
18399;SDS011;9326;49.468;11.008;2022-08-19T05:17:46;32.60;;;28.83;;
18399;SDS011;9326;49.468;11.008;2022-08-19T05:20:27;30.57;;;27.47;;
18399;SDS011;9326;49.468;11.008;2022-08-19T05:23:11;30.60;;;26.83;;
18399;SDS011;9326;49.468;11.008;2022-08-19T05:25:40;32.57;;;29.03;;
18399;SDS011;9326;49.468;11.008;2022-08-19T05:28:07;30.77;;;27.47;;
18399;SDS011;9326;49.468;11.008;2022-08-19T05:30:34;30.60;;;27.30;;
18399;SDS011;9326;49.468;11.008;2022-08-19T05:33:03;30.50;;;27.03;;
18399;SDS011;9326;49.468;11.008;2022-08-19T05:35:30;31.13;;;27.10;;
18399;SDS011;9326;49.468;11.008;2022-08-19T05:37:57;31.07;;;27.77;;
18399;SDS011;9326;49.468;11.008;2022-08-19T05:40:24;31.17;;;27.70;;
18399;SDS011;9326;49.468;11.008;2022-08-19T05:42:51;31.63;;;27.53;;
18399;SDS011;9326;49.468;11.008;2022-08-19T05:45:18;33.00;;;29.03;;
18399;SDS011;9326;49.468;11.008;2022-08-19T05:47:46;31.77;;;28.30;;
18399;SDS011;9326;49.468;11.008;2022-08-19T05:50:14;32.00;;;28.47;;
18399;SDS011;9326;49.468;11.008;2022-08-19T05:52:42;33.53;;;28.47;;
18399;SDS011;9326;49.468;11.008;2022-08-19T05:55:10;31.30;;;28.00;;
18399;SDS011;9326;49.468;11.008;2022-08-19T05:57:37;31.27;;;27.80;;
18399;SDS011;9326;49.468;11.008;2022-08-19T06:00:04;31.60;;;28.23;;
18399;SDS011;9326;49.468;11.008;2022-08-19T06:02:34;31.43;;;27.07;;
18399;SDS011;9326;49.468;11.008;2022-08-19T06:05:01;30.00;;;26.83;;
18399;SDS011;9326;49.468;11.008;2022-08-19T06:07:30;30.53;;;27.20;;
18399;SDS011;9326;49.468;11.008;2022-08-19T06:09:57;30.23;;;26.80;;
18399;SDS011;9326;49.468;11.008;2022-08-19T06:12:24;29.10;;;26.17;;
18399;SDS011;9326;49.468;11.008;2022-08-19T06:14:56;29.77;;;26.57;;
18399;SDS011;9326;49.468;11.008;2022-08-19T06:17:23;28.93;;;25.83;;
18399;SDS011;9326;49.468;11.008;2022-08-19T06:19:51;28.77;;;25.67;;
18399;SDS011;9326;49.468;11.008;2022-08-19T06:22:18;27.23;;;24.40;;
18399;SDS011;9326;49.468;11.008;2022-08-19T06:24:46;26.60;;;23.80;;
18399;SDS011;9326;49.468;11.008;2022-08-19T06:27:17;27.00;;;24.20;;
18399;SDS011;9326;49.468;11.008;2022-08-19T06:29:45;26.90;;;24.10;;
18399;SDS011;9326;49.468;11.008;2022-08-19T06:32:13;26.53;;;23.80;;
18399;SDS011;9326;49.468;11.008;2022-08-19T06:34:41;27.03;;;24.13;;
18399;SDS011;9326;49.468;11.008;2022-08-19T06:37:08;26.93;;;24.17;;
18399;SDS011;9326;49.468;11.008;2022-08-19T06:39:37;25.10;;;22.43;;
18399;SDS011;9326;49.468;11.008;2022-08-19T06:42:06;27.13;;;24.43;;
18399;SDS011;9326;49.468;11.008;2022-08-19T06:44:37;22.37;;;20.17;;
18399;SDS011;9326;49.468;11.008;2022-08-19T06:47:06;26.00;;;23.47;;
18399;SDS011;9326;49.468;11.008;2022-08-19T06:49:34;24.37;;;21.90;;
18399;SDS011;9326;49.468;11.008;2022-08-19T06:52:01;22.80;;;20.60;;
18399;SDS011;9326;49.468;11.008;2022-08-19T06:54:29;21.17;;;19.10;;
18399;SDS011;9326;49.468;11.008;2022-08-19T06:56:56;22.40;;;20.03;;
18399;SDS011;9326;49.468;11.008;2022-08-19T06:59:28;20.93;;;18.97;;
18399;SDS011;9326;49.468;11.008;2022-08-19T07:01:57;21.10;;;19.10;;
18399;SDS011;9326;49.468;11.008;2022-08-19T07:04:25;21.00;;;18.87;;
18399;SDS011;9326;49.468;11.008;2022-08-19T07:06:56;21.90;;;19.70;;
18399;SDS011;9326;49.468;11.008;2022-08-19T07:09:23;21.63;;;19.40;;
18399;SDS011;9326;49.468;11.008;2022-08-19T07:11:51;21.63;;;19.33;;
18399;SDS011;9326;49.468;11.008;2022-08-19T07:14:19;20.23;;;18.23;;
18399;SDS011;9326;49.468;11.008;2022-08-19T07:16:48;20.00;;;18.20;;
18399;SDS011;9326;49.468;11.008;2022-08-19T07:19:16;20.47;;;18.47;;
18399;SDS011;9326;49.468;11.008;2022-08-19T07:21:44;19.57;;;17.67;;
18399;SDS011;9326;49.468;11.008;2022-08-19T07:24:11;18.07;;;16.27;;
18399;SDS011;9326;49.468;11.008;2022-08-19T07:26:39;17.90;;;16.20;;
18399;SDS011;9326;49.468;11.008;2022-08-19T07:29:06;18.63;;;16.83;;
18399;SDS011;9326;49.468;11.008;2022-08-19T07:31:34;18.30;;;16.57;;
18399;SDS011;9326;49.468;11.008;2022-08-19T07:34:03;18.60;;;16.80;;
18399;SDS011;9326;49.468;11.008;2022-08-19T07:36:31;19.60;;;17.70;;
18399;SDS011;9326;49.468;11.008;2022-08-19T07:39:00;21.10;;;18.97;;
18399;SDS011;9326;49.468;11.008;2022-08-19T07:41:28;19.70;;;17.80;;
18399;SDS011;9326;49.468;11.008;2022-08-19T07:43:56;19.73;;;17.90;;
18399;SDS011;9326;49.468;11.008;2022-08-19T07:46:24;20.37;;;18.37;;
18399;SDS011;9326;49.468;11.008;2022-08-19T07:48:53;20.33;;;18.33;;
18399;SDS011;9326;49.468;11.008;2022-08-19T07:51:21;20.73;;;18.47;;
18399;SDS011;9326;49.468;11.008;2022-08-19T07:53:49;20.33;;;18.30;;
18399;SDS011;9326;49.468;11.008;2022-08-19T07:56:16;19.97;;;17.97;;
18399;SDS011;9326;49.468;11.008;2022-08-19T07:58:44;20.70;;;18.57;;
18399;SDS011;9326;49.468;11.008;2022-08-19T08:01:12;21.13;;;19.03;;
18399;SDS011;9326;49.468;11.008;2022-08-19T08:03:40;20.23;;;18.23;;
18399;SDS011;9326;49.468;11.008;2022-08-19T08:06:26;21.20;;;19.13;;
18399;SDS011;9326;49.468;11.008;2022-08-19T08:09:10;22.20;;;19.83;;
18399;SDS011;9326;49.468;11.008;2022-08-19T08:11:42;23.70;;;21.30;;
18399;SDS011;9326;49.468;11.008;2022-08-19T08:14:14;23.23;;;20.87;;
18399;SDS011;9326;49.468;11.008;2022-08-19T08:16:42;26.57;;;23.77;;
18399;SDS011;9326;49.468;11.008;2022-08-19T08:19:10;28.97;;;24.67;;
18399;SDS011;9326;49.468;11.008;2022-08-19T08:21:41;28.37;;;25.33;;
18399;SDS011;9326;49.468;11.008;2022-08-19T08:24:08;29.47;;;26.37;;
18399;SDS011;9326;49.468;11.008;2022-08-19T08:26:35;27.50;;;24.40;;
18399;SDS011;9326;49.468;11.008;2022-08-19T08:29:02;27.63;;;24.37;;
18399;SDS011;9326;49.468;11.008;2022-08-19T08:31:30;27.63;;;24.67;;
18399;SDS011;9326;49.468;11.008;2022-08-19T08:33:58;28.00;;;25.00;;
18399;SDS011;9326;49.468;11.008;2022-08-19T08:36:25;27.67;;;24.57;;
18399;SDS011;9326;49.468;11.008;2022-08-19T08:38:54;28.43;;;25.33;;
18399;SDS011;9326;49.468;11.008;2022-08-19T08:41:22;27.00;;;24.13;;
18399;SDS011;9326;49.468;11.008;2022-08-19T08:43:53;26.33;;;23.63;;
18399;SDS011;9326;49.468;11.008;2022-08-19T08:46:23;25.87;;;23.17;;
18399;SDS011;9326;49.468;11.008;2022-08-19T08:48:52;28.00;;;24.13;;
18399;SDS011;9326;49.468;11.008;2022-08-19T08:51:22;26.17;;;23.53;;
18399;SDS011;9326;49.468;11.008;2022-08-19T08:53:51;27.37;;;24.50;;
18399;SDS011;9326;49.468;11.008;2022-08-19T08:56:20;25.73;;;23.17;;
18399;SDS011;9326;49.468;11.008;2022-08-19T08:58:49;24.90;;;22.23;;
18399;SDS011;9326;49.468;11.008;2022-08-19T09:01:18;26.27;;;23.47;;
18399;SDS011;9326;49.468;11.008;2022-08-19T09:03:45;23.70;;;21.13;;
18399;SDS011;9326;49.468;11.008;2022-08-19T09:06:14;24.93;;;22.10;;
18399;SDS011;9326;49.468;11.008;2022-08-19T09:08:44;23.67;;;21.17;;
18399;SDS011;9326;49.468;11.008;2022-08-19T09:11:19;23.70;;;21.23;;
18399;SDS011;9326;49.468;11.008;2022-08-19T09:13:53;23.80;;;21.40;;
18399;SDS011;9326;49.468;11.008;2022-08-19T09:16:23;23.83;;;21.37;;
18399;SDS011;9326;49.468;11.008;2022-08-19T09:19:00;23.77;;;21.33;;
18399;SDS011;9326;49.468;11.008;2022-08-19T09:21:28;23.17;;;20.73;;
18399;SDS011;9326;49.468;11.008;2022-08-19T09:23:55;23.13;;;20.83;;
18399;SDS011;9326;49.468;11.008;2022-08-19T09:26:22;22.70;;;20.40;;
18399;SDS011;9326;49.468;11.008;2022-08-19T09:28:51;25.03;;;22.57;;
18399;SDS011;9326;49.468;11.008;2022-08-19T09:31:20;23.57;;;21.17;;
18399;SDS011;9326;49.468;11.008;2022-08-19T09:33:47;24.17;;;21.77;;
18399;SDS011;9326;49.468;11.008;2022-08-19T09:36:16;25.47;;;22.87;;
18399;SDS011;9326;49.468;11.008;2022-08-19T09:38:43;24.83;;;22.27;;
18399;SDS011;9326;49.468;11.008;2022-08-19T09:41:11;25.97;;;23.27;;
18399;SDS011;9326;49.468;11.008;2022-08-19T09:43:39;24.60;;;22.10;;
18399;SDS011;9326;49.468;11.008;2022-08-19T09:46:08;25.27;;;22.57;;
18399;SDS011;9326;49.468;11.008;2022-08-19T09:48:35;25.73;;;23.23;;
18399;SDS011;9326;49.468;11.008;2022-08-19T09:51:06;25.93;;;21.87;;
18399;SDS011;9326;49.468;11.008;2022-08-19T09:53:34;26.67;;;23.87;;
18399;SDS011;9326;49.468;11.008;2022-08-19T09:56:01;25.77;;;22.97;;
18399;SDS011;9326;49.468;11.008;2022-08-19T09:58:28;27.60;;;23.67;;
18399;SDS011;9326;49.468;11.008;2022-08-19T10:00:56;25.97;;;23.33;;
18399;SDS011;9326;49.468;11.008;2022-08-19T10:03:25;26.43;;;23.60;;
18399;SDS011;9326;49.468;11.008;2022-08-19T10:05:53;24.50;;;22.00;;
18399;SDS011;9326;49.468;11.008;2022-08-19T10:08:21;25.13;;;22.53;;
18399;SDS011;9326;49.468;11.008;2022-08-19T10:10:48;25.07;;;22.40;;
18399;SDS011;9326;49.468;11.008;2022-08-19T10:13:16;25.27;;;22.77;;
18399;SDS011;9326;49.468;11.008;2022-08-19T10:15:48;24.33;;;21.73;;
18399;SDS011;9326;49.468;11.008;2022-08-19T10:18:16;24.17;;;21.57;;
18399;SDS011;9326;49.468;11.008;2022-08-19T10:20:45;24.07;;;21.47;;
18399;SDS011;9326;49.468;11.008;2022-08-19T10:23:12;22.53;;;20.30;;
18399;SDS011;9326;49.468;11.008;2022-08-19T10:25:40;23.07;;;20.77;;
18399;SDS011;9326;49.468;11.008;2022-08-19T10:28:07;24.23;;;21.73;;
18399;SDS011;9326;49.468;11.008;2022-08-19T10:30:37;22.47;;;20.07;;
18399;SDS011;9326;49.468;11.008;2022-08-19T10:33:04;22.97;;;20.50;;
18399;SDS011;9326;49.468;11.008;2022-08-19T10:35:32;22.00;;;19.83;;
18399;SDS011;9326;49.468;11.008;2022-08-19T10:38:00;21.83;;;19.53;;
18399;SDS011;9326;49.468;11.008;2022-08-19T10:40:28;22.57;;;20.33;;
18399;SDS011;9326;49.468;11.008;2022-08-19T10:42:55;21.40;;;19.30;;
18399;SDS011;9326;49.468;11.008;2022-08-19T10:45:22;22.70;;;20.30;;
18399;SDS011;9326;49.468;11.008;2022-08-19T10:47:50;20.80;;;17.93;;
18399;SDS011;9326;49.468;11.008;2022-08-19T10:50:17;21.70;;;19.50;;
18399;SDS011;9326;49.468;11.008;2022-08-19T10:53:04;20.47;;;18.50;;
18399;SDS011;9326;49.468;11.008;2022-08-19T10:55:33;20.53;;;18.53;;
18399;SDS011;9326;49.468;11.008;2022-08-19T10:58:19;20.30;;;18.37;;
18399;SDS011;9326;49.468;11.008;2022-08-19T11:00:51;20.17;;;18.27;;
18399;SDS011;9326;49.468;11.008;2022-08-19T11:03:19;19.70;;;17.70;;
18399;SDS011;9326;49.468;11.008;2022-08-19T11:05:46;20.70;;;18.77;;
18399;SDS011;9326;49.468;11.008;2022-08-19T11:08:16;19.63;;;17.83;;
18399;SDS011;9326;49.468;11.008;2022-08-19T11:10:43;20.90;;;18.80;;
18399;SDS011;9326;49.468;11.008;2022-08-19T11:13:10;21.07;;;19.07;;
18399;SDS011;9326;49.468;11.008;2022-08-19T11:15:37;21.30;;;18.87;;
18399;SDS011;9326;49.468;11.008;2022-08-19T11:18:04;20.20;;;18.30;;
18399;SDS011;9326;49.468;11.008;2022-08-19T11:20:33;20.63;;;18.53;;
18399;SDS011;9326;49.468;11.008;2022-08-19T11:23:00;19.23;;;17.27;;
18399;SDS011;9326;49.468;11.008;2022-08-19T11:25:28;20.43;;;18.43;;
18399;SDS011;9326;49.468;11.008;2022-08-19T11:27:55;20.80;;;18.83;;
18399;SDS011;9326;49.468;11.008;2022-08-19T11:30:22;19.90;;;18.00;;
18399;SDS011;9326;49.468;11.008;2022-08-19T11:32:49;19.17;;;17.47;;
18399;SDS011;9326;49.468;11.008;2022-08-19T11:35:16;18.90;;;17.17;;
18399;SDS011;9326;49.468;11.008;2022-08-19T11:37:45;20.27;;;18.20;;
18399;SDS011;9326;49.468;11.008;2022-08-19T11:40:12;19.80;;;18.00;;
18399;SDS011;9326;49.468;11.008;2022-08-19T11:42:40;19.17;;;17.17;;
18399;SDS011;9326;49.468;11.008;2022-08-19T11:45:22;19.47;;;17.63;;
18399;SDS011;9326;49.468;11.008;2022-08-19T11:47:49;19.33;;;17.53;;
18399;SDS011;9326;49.468;11.008;2022-08-19T11:50:16;19.17;;;17.27;;
18399;SDS011;9326;49.468;11.008;2022-08-19T11:52:44;19.20;;;17.40;;
18399;SDS011;9326;49.468;11.008;2022-08-19T11:55:11;19.20;;;17.33;;
18399;SDS011;9326;49.468;11.008;2022-08-19T11:57:40;18.20;;;16.40;;
18399;SDS011;9326;49.468;11.008;2022-08-19T12:00:08;18.77;;;17.03;;
18399;SDS011;9326;49.468;11.008;2022-08-19T12:02:37;19.20;;;17.37;;
18399;SDS011;9326;49.468;11.008;2022-08-19T12:05:04;19.77;;;17.97;;
18399;SDS011;9326;49.468;11.008;2022-08-19T12:07:33;20.80;;;18.80;;
18399;SDS011;9326;49.468;11.008;2022-08-19T12:10:00;20.30;;;18.37;;
18399;SDS011;9326;49.468;11.008;2022-08-19T12:12:28;19.80;;;18.00;;
18399;SDS011;9326;49.468;11.008;2022-08-19T12:14:56;18.93;;;17.17;;
18399;SDS011;9326;49.468;11.008;2022-08-19T12:17:24;19.33;;;17.60;;
18399;SDS011;9326;49.468;11.008;2022-08-19T12:19:51;19.50;;;17.80;;
18399;SDS011;9326;49.468;11.008;2022-08-19T12:22:18;20.77;;;18.80;;
18399;SDS011;9326;49.468;11.008;2022-08-19T12:24:46;22.43;;;20.27;;
18399;SDS011;9326;49.468;11.008;2022-08-19T12:27:15;23.27;;;20.93;;
18399;SDS011;9326;49.468;11.008;2022-08-19T12:29:42;23.23;;;20.87;;
18399;SDS011;9326;49.468;11.008;2022-08-19T12:32:10;24.33;;;22.00;;
18399;SDS011;9326;49.468;11.008;2022-08-19T12:34:37;24.87;;;22.37;;
18399;SDS011;9326;49.468;11.008;2022-08-19T12:37:05;26.37;;;23.70;;
18399;SDS011;9326;49.468;11.008;2022-08-19T12:39:36;26.63;;;23.93;;
18399;SDS011;9326;49.468;11.008;2022-08-19T12:42:03;26.53;;;23.93;;
18399;SDS011;9326;49.468;11.008;2022-08-19T12:44:30;26.90;;;24.33;;
18399;SDS011;9326;49.468;11.008;2022-08-19T12:46:57;27.93;;;25.33;;
18399;SDS011;9326;49.468;11.008;2022-08-19T12:49:26;27.30;;;24.80;;
18399;SDS011;9326;49.468;11.008;2022-08-19T12:51:54;27.40;;;24.80;;
18399;SDS011;9326;49.468;11.008;2022-08-19T12:54:22;30.00;;;27.03;;
18399;SDS011;9326;49.468;11.008;2022-08-19T12:56:49;30.00;;;27.00;;
18399;SDS011;9326;49.468;11.008;2022-08-19T12:59:16;28.83;;;26.00;;
18399;SDS011;9326;49.468;11.008;2022-08-19T13:01:44;30.17;;;27.07;;
18399;SDS011;9326;49.468;11.008;2022-08-19T13:04:11;31.00;;;27.77;;
18399;SDS011;9326;49.468;11.008;2022-08-19T13:06:40;32.43;;;29.10;;
18399;SDS011;9326;49.468;11.008;2022-08-19T13:09:08;32.33;;;29.00;;
18399;SDS011;9326;49.468;11.008;2022-08-19T13:11:36;32.53;;;29.27;;
18399;SDS011;9326;49.468;11.008;2022-08-19T13:14:05;34.67;;;31.37;;
18399;SDS011;9326;49.468;11.008;2022-08-19T13:16:34;34.03;;;30.70;;
18399;SDS011;9326;49.468;11.008;2022-08-19T13:19:03;32.57;;;29.23;;
18399;SDS011;9326;49.468;11.008;2022-08-19T13:21:31;33.90;;;30.40;;
18399;SDS011;9326;49.468;11.008;2022-08-19T13:23:59;34.60;;;31.07;;
18399;SDS011;9326;49.468;11.008;2022-08-19T13:26:27;36.43;;;32.63;;
18399;SDS011;9326;49.468;11.008;2022-08-19T13:28:54;38.00;;;34.23;;
18399;SDS011;9326;49.468;11.008;2022-08-19T13:31:40;35.70;;;32.10;;
18399;SDS011;9326;49.468;11.008;2022-08-19T13:34:27;37.73;;;33.90;;
18399;SDS011;9326;49.468;11.008;2022-08-19T13:36:54;38.33;;;34.53;;
18399;SDS011;9326;49.468;11.008;2022-08-19T13:39:23;37.40;;;33.37;;
18399;SDS011;9326;49.468;11.008;2022-08-19T13:41:51;37.70;;;33.60;;
18399;SDS011;9326;49.468;11.008;2022-08-19T13:44:19;40.40;;;36.27;;
18399;SDS011;9326;49.468;11.008;2022-08-19T13:46:47;39.07;;;35.07;;
18399;SDS011;9326;49.468;11.008;2022-08-19T13:49:18;40.10;;;35.97;;
18399;SDS011;9326;49.468;11.008;2022-08-19T13:51:45;40.60;;;36.43;;
18399;SDS011;9326;49.468;11.008;2022-08-19T13:54:12;38.93;;;35.00;;
18399;SDS011;9326;49.468;11.008;2022-08-19T13:56:42;37.33;;;33.27;;
18399;SDS011;9326;49.468;11.008;2022-08-19T13:59:10;40.17;;;36.03;;
18399;SDS011;9326;49.468;11.008;2022-08-19T14:01:37;40.70;;;36.50;;
18399;SDS011;9326;49.468;11.008;2022-08-19T14:04:06;40.73;;;36.60;;
18399;SDS011;9326;49.468;11.008;2022-08-19T14:06:34;42.37;;;37.97;;
18399;SDS011;9326;49.468;11.008;2022-08-19T14:09:01;42.07;;;37.67;;
18399;SDS011;9326;49.468;11.008;2022-08-19T14:11:29;40.47;;;36.37;;
18399;SDS011;9326;49.468;11.008;2022-08-19T14:13:58;41.50;;;37.17;;
18399;SDS011;9326;49.468;11.008;2022-08-19T14:16:25;41.03;;;36.67;;
18399;SDS011;9326;49.468;11.008;2022-08-19T14:18:53;44.30;;;37.87;;
18399;SDS011;9326;49.468;11.008;2022-08-19T14:21:21;45.53;;;38.67;;
18399;SDS011;9326;49.468;11.008;2022-08-19T14:23:49;42.10;;;37.63;;
18399;SDS011;9326;49.468;11.008;2022-08-19T14:26:17;42.30;;;37.73;;
18399;SDS011;9326;49.468;11.008;2022-08-19T14:28:44;56.27;;;39.77;;
18399;SDS011;9326;49.468;11.008;2022-08-19T14:31:13;46.70;;;40.77;;
18399;SDS011;9326;49.468;11.008;2022-08-19T14:33:43;41.37;;;34.27;;
18399;SDS011;9326;49.468;11.008;2022-08-19T14:36:10;35.93;;;32.17;;
18399;SDS011;9326;49.468;11.008;2022-08-19T14:38:37;31.53;;;28.27;;
18399;SDS011;9326;49.468;11.008;2022-08-19T14:41:06;33.30;;;28.80;;
18399;SDS011;9326;49.468;11.008;2022-08-19T14:43:33;32.27;;;28.77;;
18399;SDS011;9326;49.468;11.008;2022-08-19T14:46:00;36.67;;;30.90;;
18399;SDS011;9326;49.468;11.008;2022-08-19T14:48:32;33.10;;;29.60;;
18399;SDS011;9326;49.468;11.008;2022-08-19T14:50:59;34.93;;;30.97;;
18399;SDS011;9326;49.468;11.008;2022-08-19T14:53:26;35.60;;;31.97;;
18399;SDS011;9326;49.468;11.008;2022-08-19T14:55:53;37.70;;;33.67;;
18399;SDS011;9326;49.468;11.008;2022-08-19T14:58:20;37.90;;;33.53;;
18399;SDS011;9326;49.468;11.008;2022-08-19T15:00:47;36.40;;;32.57;;
18399;SDS011;9326;49.468;11.008;2022-08-19T15:03:14;35.53;;;31.80;;
18399;SDS011;9326;49.468;11.008;2022-08-19T15:05:43;34.17;;;30.47;;
18399;SDS011;9326;49.468;11.008;2022-08-19T15:08:10;31.70;;;28.43;;
18399;SDS011;9326;49.468;11.008;2022-08-19T15:10:37;29.63;;;26.63;;
18399;SDS011;9326;49.468;11.008;2022-08-19T15:13:04;29.60;;;26.50;;
18399;SDS011;9326;49.468;11.008;2022-08-19T15:15:32;30.13;;;27.13;;
18399;SDS011;9326;49.468;11.008;2022-08-19T15:18:00;27.37;;;24.47;;
18399;SDS011;9326;49.468;11.008;2022-08-19T15:20:27;28.30;;;25.40;;
18399;SDS011;9326;49.468;11.008;2022-08-19T15:22:56;29.03;;;25.43;;
18399;SDS011;9326;49.468;11.008;2022-08-19T15:25:24;26.57;;;24.00;;
18399;SDS011;9326;49.468;11.008;2022-08-19T15:27:52;24.63;;;22.33;;
18399;SDS011;9326;49.468;11.008;2022-08-19T15:30:20;24.70;;;22.13;;
18399;SDS011;9326;49.468;11.008;2022-08-19T15:32:47;23.10;;;20.90;;
18399;SDS011;9326;49.468;11.008;2022-08-19T15:35:14;20.17;;;18.13;;
18399;SDS011;9326;49.468;11.008;2022-08-19T15:37:43;21.53;;;19.53;;
18399;SDS011;9326;49.468;11.008;2022-08-19T15:40:12;20.57;;;18.47;;
18399;SDS011;9326;49.468;11.008;2022-08-19T15:42:39;20.60;;;18.70;;
18399;SDS011;9326;49.468;11.008;2022-08-19T15:45:09;22.03;;;19.10;;
18399;SDS011;9326;49.468;11.008;2022-08-19T15:47:36;20.23;;;18.07;;
18399;SDS011;9326;49.468;11.008;2022-08-19T15:50:04;18.80;;;17.10;;
18399;SDS011;9326;49.468;11.008;2022-08-19T15:52:32;17.77;;;16.17;;
18399;SDS011;9326;49.468;11.008;2022-08-19T15:54:59;17.97;;;16.23;;
18399;SDS011;9326;49.468;11.008;2022-08-19T15:57:28;24.40;;;16.27;;
18399;SDS011;9326;49.468;11.008;2022-08-19T16:00:12;23.63;;;16.50;;
18399;SDS011;9326;49.468;11.008;2022-08-19T16:02:57;20.07;;;17.70;;
18399;SDS011;9326;49.468;11.008;2022-08-19T16:05:42;19.43;;;17.50;;
18399;SDS011;9326;49.468;11.008;2022-08-19T16:08:26;22.13;;;17.47;;
18399;SDS011;9326;49.468;11.008;2022-08-19T16:10:55;19.70;;;17.57;;
18399;SDS011;9326;49.468;11.008;2022-08-19T16:13:23;18.67;;;16.87;;
18399;SDS011;9326;49.468;11.008;2022-08-19T16:15:50;19.00;;;17.20;;
18399;SDS011;9326;49.468;11.008;2022-08-19T16:18:21;17.90;;;16.17;;
18399;SDS011;9326;49.468;11.008;2022-08-19T16:20:49;24.53;;;17.83;;
18399;SDS011;9326;49.468;11.008;2022-08-19T16:23:16;20.20;;;18.23;;
18399;SDS011;9326;49.468;11.008;2022-08-19T16:25:43;20.23;;;18.17;;
18399;SDS011;9326;49.468;11.008;2022-08-19T16:28:10;20.50;;;18.50;;
18399;SDS011;9326;49.468;11.008;2022-08-19T16:30:38;21.87;;;19.60;;
18399;SDS011;9326;49.468;11.008;2022-08-19T16:33:07;20.50;;;18.67;;
18399;SDS011;9326;49.468;11.008;2022-08-19T16:35:35;20.03;;;18.13;;
18399;SDS011;9326;49.468;11.008;2022-08-19T16:38:02;20.17;;;18.23;;
18399;SDS011;9326;49.468;11.008;2022-08-19T16:40:30;20.73;;;18.63;;
18399;SDS011;9326;49.468;11.008;2022-08-19T16:42:58;21.70;;;19.60;;
18399;SDS011;9326;49.468;11.008;2022-08-19T16:45:26;19.83;;;18.03;;
18399;SDS011;9326;49.468;11.008;2022-08-19T16:47:54;19.87;;;18.07;;
18399;SDS011;9326;49.468;11.008;2022-08-19T16:50:22;18.70;;;16.80;;
18399;SDS011;9326;49.468;11.008;2022-08-19T16:52:49;15.83;;;14.33;;
18399;SDS011;9326;49.468;11.008;2022-08-19T16:55:16;18.07;;;16.37;;
18399;SDS011;9326;49.468;11.008;2022-08-19T16:57:46;18.17;;;16.20;;
18399;SDS011;9326;49.468;11.008;2022-08-19T17:00:14;17.43;;;15.50;;
18399;SDS011;9326;49.468;11.008;2022-08-19T17:02:41;17.20;;;15.50;;
18399;SDS011;9326;49.468;11.008;2022-08-19T17:05:10;16.97;;;15.27;;
18399;SDS011;9326;49.468;11.008;2022-08-19T17:07:37;17.13;;;15.50;;
18399;SDS011;9326;49.468;11.008;2022-08-19T17:10:04;17.87;;;16.07;;
18399;SDS011;9326;49.468;11.008;2022-08-19T17:12:31;17.33;;;14.57;;
18399;SDS011;9326;49.468;11.008;2022-08-19T17:14:59;18.93;;;14.77;;
18399;SDS011;9326;49.468;11.008;2022-08-19T17:17:29;16.47;;;14.57;;
18399;SDS011;9326;49.468;11.008;2022-08-19T17:19:57;16.67;;;14.97;;
18399;SDS011;9326;49.468;11.008;2022-08-19T17:22:25;18.50;;;16.13;;
18399;SDS011;9326;49.468;11.008;2022-08-19T17:24:52;19.43;;;15.57;;
18399;SDS011;9326;49.468;11.008;2022-08-19T17:27:19;22.90;;;17.83;;
18399;SDS011;9326;49.468;11.008;2022-08-19T17:29:46;20.97;;;18.87;;
18399;SDS011;9326;49.468;11.008;2022-08-19T17:32:13;19.87;;;17.87;;
18399;SDS011;9326;49.468;11.008;2022-08-19T17:34:40;17.43;;;15.63;;
18399;SDS011;9326;49.468;11.008;2022-08-19T17:37:08;15.43;;;13.83;;
18399;SDS011;9326;49.468;11.008;2022-08-19T17:39:36;17.03;;;13.83;;
18399;SDS011;9326;49.468;11.008;2022-08-19T17:42:03;21.73;;;15.13;;
18399;SDS011;9326;49.468;11.008;2022-08-19T17:44:31;20.77;;;14.00;;
18399;SDS011;9326;49.468;11.008;2022-08-19T17:47:00;16.07;;;14.10;;
18399;SDS011;9326;49.468;11.008;2022-08-19T17:49:28;19.27;;;15.90;;
18399;SDS011;9326;49.468;11.008;2022-08-19T17:51:55;15.67;;;14.13;;
18399;SDS011;9326;49.468;11.008;2022-08-19T17:54:23;16.90;;;15.03;;
18399;SDS011;9326;49.468;11.008;2022-08-19T17:56:51;18.33;;;15.57;;
18399;SDS011;9326;49.468;11.008;2022-08-19T17:59:18;19.40;;;15.10;;
18399;SDS011;9326;49.468;11.008;2022-08-19T18:01:46;21.33;;;15.60;;
18399;SDS011;9326;49.468;11.008;2022-08-19T18:04:13;17.43;;;14.67;;
18399;SDS011;9326;49.468;11.008;2022-08-19T18:06:41;23.73;;;14.73;;
18399;SDS011;9326;49.468;11.008;2022-08-19T18:09:08;17.37;;;13.30;;
18399;SDS011;9326;49.468;11.008;2022-08-19T18:11:35;22.77;;;14.23;;
18399;SDS011;9326;49.468;11.008;2022-08-19T18:14:03;15.77;;;13.43;;
18399;SDS011;9326;49.468;11.008;2022-08-19T18:16:30;15.10;;;13.53;;
18399;SDS011;9326;49.468;11.008;2022-08-19T18:18:57;16.10;;;13.20;;
18399;SDS011;9326;49.468;11.008;2022-08-19T18:21:25;17.23;;;12.13;;
18399;SDS011;9326;49.468;11.008;2022-08-19T18:23:56;14.70;;;13.30;;
18399;SDS011;9326;49.468;11.008;2022-08-19T18:26:23;14.03;;;12.73;;
18399;SDS011;9326;49.468;11.008;2022-08-19T18:28:50;15.27;;;12.20;;
18399;SDS011;9326;49.468;11.008;2022-08-19T18:31:19;13.77;;;12.43;;
18399;SDS011;9326;49.468;11.008;2022-08-19T18:33:47;14.33;;;12.93;;
18399;SDS011;9326;49.468;11.008;2022-08-19T18:36:17;12.03;;;10.83;;
18399;SDS011;9326;49.468;11.008;2022-08-19T18:38:44;13.00;;;11.70;;
18399;SDS011;9326;49.468;11.008;2022-08-19T18:41:29;13.07;;;11.87;;
18399;SDS011;9326;49.468;11.008;2022-08-19T18:44:25;13.27;;;11.97;;
18399;SDS011;9326;49.468;11.008;2022-08-19T18:47:11;12.30;;;11.20;;
18399;SDS011;9326;49.468;11.008;2022-08-19T18:49:56;12.43;;;11.20;;
18399;SDS011;9326;49.468;11.008;2022-08-19T18:52:26;8.33;;;7.50;;
18399;SDS011;9326;49.468;11.008;2022-08-19T18:54:53;9.40;;;8.43;;
18399;SDS011;9326;49.468;11.008;2022-08-19T18:57:20;9.77;;;8.83;;
18399;SDS011;9326;49.468;11.008;2022-08-19T18:59:48;9.50;;;8.70;;
18399;SDS011;9326;49.468;11.008;2022-08-19T19:02:17;8.23;;;7.53;;
18399;SDS011;9326;49.468;11.008;2022-08-19T19:04:46;8.00;;;7.20;;
18399;SDS011;9326;49.468;11.008;2022-08-19T19:07:13;8.53;;;7.70;;
18399;SDS011;9326;49.468;11.008;2022-08-19T19:09:42;9.10;;;8.30;;
18399;SDS011;9326;49.468;11.008;2022-08-19T19:12:09;9.33;;;8.43;;
18399;SDS011;9326;49.468;11.008;2022-08-19T19:14:38;9.93;;;9.13;;
18399;SDS011;9326;49.468;11.008;2022-08-19T19:17:07;11.23;;;10.13;;
18399;SDS011;9326;49.468;11.008;2022-08-19T19:19:38;11.23;;;10.13;;
18399;SDS011;9326;49.468;11.008;2022-08-19T19:22:06;16.83;;;13.13;;
18399;SDS011;9326;49.468;11.008;2022-08-19T19:24:35;15.13;;;12.00;;
18399;SDS011;9326;49.468;11.008;2022-08-19T19:27:02;13.80;;;12.13;;
18399;SDS011;9326;49.468;11.008;2022-08-19T19:29:31;12.00;;;10.80;;
18399;SDS011;9326;49.468;11.008;2022-08-19T19:31:59;11.03;;;10.10;;